עמוד ראשי
METAR-TAF:

METAR-TAF

שדות תעופה :

Nueva Loja, אקוודור

קו רוחב: 00-05-33N, קו אורך: 076-52-10W, גובה: 299מטר

תצפית מזג אוויר נוכחית

הדו"ח נערך לפני 17דקות, בשעה 15:00 UTC
רוח 5קשר מכיוון מערב
טמפרטורת 27 צלסיוס
לחות 84%
לחץ 1015 hPa
ראות 10 קילומטר או יותר
מעט עננים בגובה 2000רגל
עננים פזורים בגובה 10000רגל

METAR: SENL 241500Z 26005KT 9999 FEW020 SCT100 27/24 Q1015 RMK A3000

זמן: 10:17 (15:17 UTC)


TAF: חסר

תצפיות ותחזיות מזג אוויר לגבי יותר מ- 4,000 שדות תעופה ברחבי העולם. דוחות METAR ו- TAF.

התחנות הזמינות מסומנות בנקודות צהובות ואדומות על גבי המפה.

העבר את העכבר לנקודה הצבעונית על מנת לראות את שם התחנה.

לאחר מכן, לחץ כדי לראות את תוכן ואת תחזיות מזג האוויר.

כדי לשנות את המפה: לחץ על הכפתורים הירוקים עם הפלוס השחור כדי להתקרב; על הכפתור הירוק עם המקף כדי להתרחק; או בחיצים הירוקים למפות סמוכות.


METAR-TAF: